sensor_id;sensor_type;location;lat;lon;timestamp;pressure;altitude;pressure_sealevel;temperature;humidity
63652;BME280;49801;37.536;-122.304;2022-09-17T00:00:16;101264.34;;;22.03;45.31
63652;BME280;49801;37.536;-122.304;2022-09-17T00:01:02;101267.44;;;21.95;45.58
63652;BME280;49801;37.536;-122.304;2022-09-17T00:01:28;101275.72;;;21.95;45.51
63652;BME280;49801;37.536;-122.304;2022-09-17T00:01:55;101268.03;;;21.97;45.48
63652;BME280;49801;37.536;-122.304;2022-09-17T00:02:21;101273.78;;;21.95;45.58
63652;BME280;49801;37.536;-122.304;2022-09-17T00:02:50;101268.63;;;21.99;45.72
63652;BME280;49801;37.536;-122.304;2022-09-17T00:03:16;101265.41;;;22.02;45.88
63652;BME280;49801;37.536;-122.304;2022-09-17T00:03:42;101271.53;;;22.04;45.49
63652;BME280;49801;37.536;-122.304;2022-09-17T00:04:09;101270.44;;;21.93;45.46
63652;BME280;49801;37.536;-122.304;2022-09-17T00:04:34;101269.59;;;21.92;45.75
63652;BME280;49801;37.536;-122.304;2022-09-17T00:05:00;101277.28;;;21.90;45.56
63652;BME280;49801;37.536;-122.304;2022-09-17T00:05:26;101271.25;;;21.94;45.73
63652;BME280;49801;37.536;-122.304;2022-09-17T00:05:59;101280.63;;;21.92;45.44
63652;BME280;49801;37.536;-122.304;2022-09-17T00:06:25;101265.50;;;21.83;45.69
63652;BME280;49801;37.536;-122.304;2022-09-17T00:06:51;101269.34;;;21.82;45.70
63652;BME280;49801;37.536;-122.304;2022-09-17T00:07:17;101267.53;;;21.88;45.76
63652;BME280;49801;37.536;-122.304;2022-09-17T00:07:43;101265.38;;;21.90;45.99
63652;BME280;49801;37.536;-122.304;2022-09-17T00:08:10;101270.53;;;21.86;45.60
63652;BME280;49801;37.536;-122.304;2022-09-17T00:08:37;101262.50;;;21.85;45.75
63652;BME280;49801;37.536;-122.304;2022-09-17T00:09:04;101265.88;;;21.87;46.15
63652;BME280;49801;37.536;-122.304;2022-09-17T00:09:30;101265.50;;;21.83;45.90
63652;BME280;49801;37.536;-122.304;2022-09-17T00:09:56;101255.69;;;21.87;45.91
63652;BME280;49801;37.536;-122.304;2022-09-17T00:10:22;101265.88;;;21.87;46.03
63652;BME280;49801;37.536;-122.304;2022-09-17T00:10:48;101269.69;;;21.86;46.24
63652;BME280;49801;37.536;-122.304;2022-09-17T00:11:15;101265.50;;;21.83;46.22
63652;BME280;49801;37.536;-122.304;2022-09-17T00:11:42;101269.34;;;21.82;46.32
63652;BME280;49801;37.536;-122.304;2022-09-17T00:12:07;101270.25;;;21.76;46.42
63652;BME280;49801;37.536;-122.304;2022-09-17T00:12:33;101261.84;;;21.71;46.31
63652;BME280;49801;37.536;-122.304;2022-09-17T00:12:59;101269.97;;;21.66;46.33
63652;BME280;49801;37.536;-122.304;2022-09-17T00:13:25;101262.81;;;21.65;46.50
63652;BME280;49801;37.536;-122.304;2022-09-17T00:13:51;101271.03;;;21.53;46.75
63652;BME280;49801;37.536;-122.304;2022-09-17T00:14:17;101267.72;;;21.44;46.74
63652;BME280;49801;37.536;-122.304;2022-09-17T00:14:42;101273.63;;;21.48;46.90
63652;BME280;49801;37.536;-122.304;2022-09-17T00:15:08;101266.19;;;21.48;46.84
63652;BME280;49801;37.536;-122.304;2022-09-17T00:15:43;101272.81;;;21.47;46.39
63652;BME280;49801;37.536;-122.304;2022-09-17T00:16:09;101267.72;;;21.44;46.66
63652;BME280;49801;37.536;-122.304;2022-09-17T00:16:37;101277.03;;;21.43;46.79
63652;BME280;49801;37.536;-122.304;2022-09-17T00:17:03;101274.84;;;21.52;46.93
63652;BME280;49801;37.536;-122.304;2022-09-17T00:17:29;101271.03;;;21.53;47.01
63652;BME280;49801;37.536;-122.304;2022-09-17T00:17:55;101269.69;;;21.56;46.57
63652;BME280;49801;37.536;-122.304;2022-09-17T00:18:22;101269.25;;;21.59;46.42
63652;BME280;49801;37.536;-122.304;2022-09-17T00:18:48;101268.41;;;21.58;45.98
63652;BME280;49801;37.536;-122.304;2022-09-17T00:19:17;101273.47;;;21.61;45.72
63652;BME280;49801;37.536;-122.304;2022-09-17T00:19:43;101278.09;;;21.61;45.36
63652;BME280;49801;37.536;-122.304;2022-09-17T00:20:09;101269.47;;;21.57;45.34
63652;BME280;49801;37.536;-122.304;2022-09-17T00:20:38;101270.03;;;21.29;45.69
63652;BME280;49801;37.536;-122.304;2022-09-17T00:21:04;101274.00;;;21.14;46.31
63652;BME280;49801;37.536;-122.304;2022-09-17T00:21:30;101280.28;;;21.22;46.36
63652;BME280;49801;37.536;-122.304;2022-09-17T00:21:56;101266.38;;;21.16;47.02
63652;BME280;49801;37.536;-122.304;2022-09-17T00:22:21;101273.16;;;21.14;47.23
63652;BME280;49801;37.536;-122.304;2022-09-17T00:22:47;101265.28;;;21.17;47.04
63652;BME280;49801;37.536;-122.304;2022-09-17T00:23:13;101267.66;;;21.14;47.48
63652;BME280;49801;37.536;-122.304;2022-09-17T00:23:39;101266.00;;;21.13;47.61
63652;BME280;49801;37.536;-122.304;2022-09-17T00:24:05;101263.25;;;21.13;47.63
63652;BME280;49801;37.536;-122.304;2022-09-17T00:24:31;101266.84;;;21.13;47.70
63652;BME280;49801;37.536;-122.304;2022-09-17T00:24:57;101265.13;;;21.12;47.73
63652;BME280;49801;37.536;-122.304;2022-09-17T00:25:23;101263.47;;;21.11;47.97
63652;BME280;49801;37.536;-122.304;2022-09-17T00:25:48;101265.59;;;21.09;48.22
63652;BME280;49801;37.536;-122.304;2022-09-17T00:26:14;101257.34;;;21.09;48.12
63652;BME280;49801;37.536;-122.304;2022-09-17T00:26:40;101266.91;;;21.07;48.26
63652;BME280;49801;37.536;-122.304;2022-09-17T00:27:06;101265.59;;;21.09;48.18
63652;BME280;49801;37.536;-122.304;2022-09-17T00:27:32;101260.09;;;21.09;48.30
63652;BME280;49801;37.536;-122.304;2022-09-17T00:27:58;101259.72;;;21.06;48.00
63652;BME280;49801;37.536;-122.304;2022-09-17T00:28:24;101258.50;;;21.02;47.80
63652;BME280;49801;37.536;-122.304;2022-09-17T00:28:53;101268.69;;;21.01;47.79
63652;BME280;49801;37.536;-122.304;2022-09-17T00:29:19;101258.72;;;21.00;48.03
63652;BME280;49801;37.536;-122.304;2022-09-17T00:29:46;101263.03;;;20.96;47.75
63652;BME280;49801;37.536;-122.304;2022-09-17T00:30:12;101269.59;;;20.95;47.17
63652;BME280;49801;37.536;-122.304;2022-09-17T00:30:42;101265.41;;;20.92;46.98
63652;BME280;49801;37.536;-122.304;2022-09-17T00:31:08;101264.69;;;20.97;47.17
63652;BME280;49801;37.536;-122.304;2022-09-17T00:31:34;101269.28;;;20.85;47.66
63652;BME280;49801;37.536;-122.304;2022-09-17T00:32:00;101265.09;;;20.82;48.04
63652;BME280;49801;37.536;-122.304;2022-09-17T00:32:26;101264.22;;;20.82;48.38
63652;BME280;49801;37.536;-122.304;2022-09-17T00:32:52;101269.50;;;20.83;48.50
63652;BME280;49801;37.536;-122.304;2022-09-17T00:33:18;101270.19;;;20.78;48.83
63652;BME280;49801;37.536;-122.304;2022-09-17T00:33:45;101258.91;;;20.61;49.12
63652;BME280;49801;37.536;-122.304;2022-09-17T00:34:11;101265.38;;;20.49;49.60
63652;BME280;49801;37.536;-122.304;2022-09-17T00:34:37;101267.06;;;20.50;49.57
63652;BME280;49801;37.536;-122.304;2022-09-17T00:35:03;101265.38;;;20.49;49.77
63652;BME280;49801;37.536;-122.304;2022-09-17T00:35:28;101262.63;;;20.49;49.96
63652;BME280;49801;37.536;-122.304;2022-09-17T00:35:58;101261.56;;;20.50;49.85
63652;BME280;49801;37.536;-122.304;2022-09-17T00:36:24;101262.00;;;20.47;49.54
63652;BME280;49801;37.536;-122.304;2022-09-17T00:36:50;101261.41;;;20.45;49.72
63652;BME280;49801;37.536;-122.304;2022-09-17T00:37:16;101260.41;;;20.39;49.78
63652;BME280;49801;37.536;-122.304;2022-09-17T00:37:42;101254.94;;;20.32;49.65
63652;BME280;49801;37.536;-122.304;2022-09-17T00:38:08;101262.56;;;20.30;49.70
63652;BME280;49801;37.536;-122.304;2022-09-17T00:38:34;101265.47;;;20.35;49.79
63652;BME280;49801;37.536;-122.304;2022-09-17T00:38:59;101261.50;;;20.31;49.92
63652;BME280;49801;37.536;-122.304;2022-09-17T00:39:25;101256.00;;;20.31;49.86
63652;BME280;49801;37.536;-122.304;2022-09-17T00:39:51;101256.63;;;20.33;49.76
63652;BME280;49801;37.536;-122.304;2022-09-17T00:40:17;101263.03;;;20.27;50.05
63652;BME280;49801;37.536;-122.304;2022-09-17T00:40:43;101263.03;;;20.27;49.92
63652;BME280;49801;37.536;-122.304;2022-09-17T00:41:09;101262.22;;;20.20;49.94
63652;BME280;49801;37.536;-122.304;2022-09-17T00:41:35;101262.69;;;20.17;50.22
63652;BME280;49801;37.536;-122.304;2022-09-17T00:42:01;101265.63;;;20.22;50.24
63652;BME280;49801;37.536;-122.304;2022-09-17T00:42:29;101256.28;;;20.23;50.15
63652;BME280;49801;37.536;-122.304;2022-09-17T00:42:55;101261.28;;;20.33;49.82
63652;BME280;49801;37.536;-122.304;2022-09-17T00:43:38;101266.41;;;20.29;49.94
63652;BME280;49801;37.536;-122.304;2022-09-17T00:44:50;101265.22;;;20.18;49.83
63652;BME280;49801;37.536;-122.304;2022-09-17T00:45:17;101266.06;;;20.19;49.86
63652;BME280;49801;37.536;-122.304;2022-09-17T00:45:42;101262.69;;;20.17;49.73
63652;BME280;49801;37.536;-122.304;2022-09-17T00:46:16;101262.34;;;20.07;50.12
63652;BME280;49801;37.536;-122.304;2022-09-17T00:46:45;101264.50;;;20.04;50.00
63652;BME280;49801;37.536;-122.304;2022-09-17T00:47:16;101261.75;;;20.04;50.44
63652;BME280;49801;37.536;-122.304;2022-09-17T00:47:46;101262.19;;;20.01;50.37
63652;BME280;49801;37.536;-122.304;2022-09-17T00:48:15;101272.56;;;19.99;50.63
63652;BME280;49801;37.536;-122.304;2022-09-17T00:48:41;101267.50;;;19.96;50.64
63652;BME280;49801;37.536;-122.304;2022-09-17T00:49:11;101272.56;;;19.99;50.69
63652;BME280;49801;37.536;-122.304;2022-09-17T00:49:37;101261.09;;;20.02;50.54
63652;BME280;49801;37.536;-122.304;2022-09-17T00:50:36;101265.72;;;19.77;51.29
63652;BME280;49801;37.536;-122.304;2022-09-17T00:51:03;101271.00;;;19.72;51.48
63652;BME280;49801;37.536;-122.304;2022-09-17T00:51:35;101265.09;;;19.68;51.59
63652;BME280;49801;37.536;-122.304;2022-09-17T00:52:05;101261.53;;;19.67;51.57
63652;BME280;49801;37.536;-122.304;2022-09-17T00:52:34;101262.56;;;19.66;51.78
63652;BME280;49801;37.536;-122.304;2022-09-17T00:53:05;101260.88;;;19.72;51.64
63652;BME280;49801;37.536;-122.304;2022-09-17T00:53:32;101261.28;;;19.76;51.45
63652;BME280;49801;37.536;-122.304;2022-09-17T00:53:58;101265.72;;;19.77;51.65
63652;BME280;49801;37.536;-122.304;2022-09-17T00:54:24;101269.75;;;19.74;51.59
63652;BME280;49801;37.536;-122.304;2022-09-17T00:54:56;101268.47;;;19.77;51.65
63652;BME280;49801;37.536;-122.304;2022-09-17T00:55:50;101262.13;;;19.76;51.87
63652;BME280;49801;37.536;-122.304;2022-09-17T00:56:25;101263.63;;;19.72;51.89
63652;BME280;49801;37.536;-122.304;2022-09-17T00:56:52;101264.31;;;19.61;52.32
63652;BME280;49801;37.536;-122.304;2022-09-17T00:57:17;101274.47;;;19.60;52.38
63652;BME280;49801;37.536;-122.304;2022-09-17T00:57:44;101265.78;;;19.63;52.24
63652;BME280;49801;37.536;-122.304;2022-09-17T00:58:10;101269.75;;;19.67;52.15
63652;BME280;49801;37.536;-122.304;2022-09-17T00:58:37;101268.94;;;19.67;52.34
63652;BME280;49801;37.536;-122.304;2022-09-17T00:59:03;101275.25;;;19.67;52.07
63652;BME280;49801;37.536;-122.304;2022-09-17T00:59:29;101272.69;;;19.73;51.93
63652;BME280;49801;37.536;-122.304;2022-09-17T00:59:55;101269.31;;;19.71;51.88
63652;BME280;49801;37.536;-122.304;2022-09-17T01:00:21;101269.31;;;19.71;51.74
63652;BME280;49801;37.536;-122.304;2022-09-17T01:00:47;101269.97;;;19.66;51.78
63652;BME280;49801;37.536;-122.304;2022-09-17T01:01:12;101271.28;;;19.63;50.50
63652;BME280;49801;37.536;-122.304;2022-09-17T01:01:39;101261.13;;;19.64;50.53
63652;BME280;49801;37.536;-122.304;2022-09-17T01:02:05;101266.41;;;19.65;50.72
63652;BME280;49801;37.536;-122.304;2022-09-17T01:02:31;101266.84;;;19.62;51.48
63652;BME280;49801;37.536;-122.304;2022-09-17T01:02:57;101267.25;;;19.59;51.75
63652;BME280;49801;37.536;-122.304;2022-09-17T01:03:23;101268.56;;;19.57;51.70
63652;BME280;49801;37.536;-122.304;2022-09-17T01:03:49;101263.91;;;19.57;51.16
63652;BME280;49801;37.536;-122.304;2022-09-17T01:04:16;101269.00;;;19.54;50.77
63652;BME280;49801;37.536;-122.304;2022-09-17T01:04:41;101267.13;;;19.41;50.22
63652;BME280;49801;37.536;-122.304;2022-09-17T01:05:07;101264.47;;;19.27;50.46
63652;BME280;49801;37.536;-122.304;2022-09-17T01:06:24;101265.72;;;19.32;50.49
63652;BME280;49801;37.536;-122.304;2022-09-17T01:07:05;101255.56;;;19.32;50.53
63652;BME280;49801;37.536;-122.304;2022-09-17T01:12:01;101265.19;;;19.03;51.19
63652;BME280;49801;37.536;-122.304;2022-09-17T01:13:27;101267.13;;;18.96;51.54
63652;BME280;49801;37.536;-122.304;2022-09-17T01:14:45;101260.38;;;18.91;51.41
63652;BME280;49801;37.536;-122.304;2022-09-17T01:15:31;101263.34;;;18.83;51.45
63652;BME280;49801;37.536;-122.304;2022-09-17T01:16:06;101268.00;;;18.76;51.66
63652;BME280;49801;37.536;-122.304;2022-09-17T01:16:50;101267.56;;;18.72;51.88
63652;BME280;49801;37.536;-122.304;2022-09-17T01:19:51;101263.34;;;18.56;52.22
63652;BME280;49801;37.536;-122.304;2022-09-17T01:21:49;101271.00;;;18.41;53.07
63652;BME280;49801;37.536;-122.304;2022-09-17T01:22:23;101269.31;;;18.40;53.26
63652;BME280;49801;37.536;-122.304;2022-09-17T01:23:14;101270.59;;;18.31;53.34
63652;BME280;49801;37.536;-122.304;2022-09-17T01:24:28;101271.63;;;18.16;53.63
63652;BME280;49801;37.536;-122.304;2022-09-17T01:25:21;101273.91;;;18.06;53.96
63652;BME280;49801;37.536;-122.304;2022-09-17T01:28:20;101268.44;;;18.06;54.00
63652;BME280;49801;37.536;-122.304;2022-09-17T01:29:23;101271.81;;;18.02;54.21
63652;BME280;49801;37.536;-122.304;2022-09-17T01:30:30;101270.13;;;17.94;54.58
63652;BME280;49801;37.536;-122.304;2022-09-17T01:31:32;101267.09;;;17.75;55.27
63652;BME280;49801;37.536;-122.304;2022-09-17T01:32:11;101270.88;;;17.61;55.76
63652;BME280;49801;37.536;-122.304;2022-09-17T01:33:16;101266.19;;;17.55;56.03
63652;BME280;49801;37.536;-122.304;2022-09-17T01:34:25;101270.88;;;17.61;55.79
63652;BME280;49801;37.536;-122.304;2022-09-17T01:36:01;101263.25;;;17.50;55.99
63652;BME280;49801;37.536;-122.304;2022-09-17T01:37:29;101271.44;;;17.43;56.35
63652;BME280;49801;37.536;-122.304;2022-09-17T01:38:29;101269.97;;;17.40;56.24
63652;BME280;49801;37.536;-122.304;2022-09-17T01:39:02;101268.69;;;17.36;56.30
63652;BME280;49801;37.536;-122.304;2022-09-17T01:40:22;101267.00;;;17.35;56.31
63652;BME280;49801;37.536;-122.304;2022-09-17T01:41:02;101269.50;;;17.30;56.59
63652;BME280;49801;37.536;-122.304;2022-09-17T01:42:14;101266.06;;;17.15;57.06
63652;BME280;49801;37.536;-122.304;2022-09-17T01:42:24;101275.50;;;17.05;57.54
63652;BME280;49801;37.536;-122.304;2022-09-17T01:43:25;101284.34;;;17.08;57.55
63652;BME280;49801;37.536;-122.304;2022-09-17T01:43:55;101274.44;;;17.06;57.48
63652;BME280;49801;37.536;-122.304;2022-09-17T01:45:07;101279.28;;;17.04;57.77
63652;BME280;49801;37.536;-122.304;2022-09-17T01:45:14;101282.66;;;17.06;57.57
63652;BME280;49801;37.536;-122.304;2022-09-17T01:46:46;101283.72;;;17.05;57.65
63652;BME280;49801;37.536;-122.304;2022-09-17T01:47:16;101276.13;;;17.08;57.59
63652;BME280;49801;37.536;-122.304;2022-09-17T01:48:20;101284.53;;;17.06;57.58
63652;BME280;49801;37.536;-122.304;2022-09-17T01:48:49;101282.59;;;17.00;57.65
63652;BME280;49801;37.536;-122.304;2022-09-17T01:49:16;101282.78;;;16.92;58.01
63652;BME280;49801;37.536;-122.304;2022-09-17T01:49:43;101283.63;;;16.92;57.90
63652;BME280;49801;37.536;-122.304;2022-09-17T01:50:17;101287.78;;;16.88;58.10
63652;BME280;49801;37.536;-122.304;2022-09-17T01:51:20;101284.03;;;16.89;58.11
63652;BME280;49801;37.536;-122.304;2022-09-17T01:51:47;101283.19;;;16.89;58.21
63652;BME280;49801;37.536;-122.304;2022-09-17T01:52:15;101280.66;;;16.87;58.40
63652;BME280;49801;37.536;-122.304;2022-09-17T01:52:40;101287.75;;;16.81;58.48
63652;BME280;49801;37.536;-122.304;2022-09-17T01:53:09;101278.03;;;16.79;58.85
63652;BME280;49801;37.536;-122.304;2022-09-17T01:53:45;101287.69;;;16.75;58.80
63652;BME280;49801;37.536;-122.304;2022-09-17T01:54:23;101279.69;;;16.73;59.26
63652;BME280;49801;37.536;-122.304;2022-09-17T01:54:50;101281.13;;;16.69;59.27
63652;BME280;49801;37.536;-122.304;2022-09-17T01:55:18;101286.41;;;16.71;59.05
63652;BME280;49801;37.536;-122.304;2022-09-17T01:55:46;101286.41;;;16.71;59.23
63652;BME280;49801;37.536;-122.304;2022-09-17T01:56:15;101292.25;;;16.67;59.14
63652;BME280;49801;37.536;-122.304;2022-09-17T01:56:45;101291.41;;;16.67;59.31
63652;BME280;49801;37.536;-122.304;2022-09-17T01:57:22;101292.94;;;16.69;59.29
63652;BME280;49801;37.536;-122.304;2022-09-17T01:57:52;101290.19;;;16.69;59.21
63652;BME280;49801;37.536;-122.304;2022-09-17T01:58:21;101291.88;;;16.71;59.21
63652;BME280;49801;37.536;-122.304;2022-09-17T01:58:52;101288.09;;;16.72;59.12
63652;BME280;49801;37.536;-122.304;2022-09-17T01:59:26;101275.25;;;16.72;59.10
63652;BME280;49801;37.536;-122.304;2022-09-17T02:00:20;101286.72;;;16.54;59.96
63652;BME280;49801;37.536;-122.304;2022-09-17T02:00:47;101290.94;;;16.57;59.86
63652;BME280;49801;37.536;-122.304;2022-09-17T02:01:16;101289.69;;;16.59;59.88
63652;BME280;49801;37.536;-122.304;2022-09-17T02:01:45;101288.00;;;16.58;60.16
63652;BME280;49801;37.536;-122.304;2022-09-17T02:02:14;101282.91;;;16.55;60.23
63652;BME280;49801;37.536;-122.304;2022-09-17T02:03:17;101288.81;;;16.52;60.49
63652;BME280;49801;37.536;-122.304;2022-09-17T02:03:53;101293.22;;;16.53;60.36
63652;BME280;49801;37.536;-122.304;2022-09-17T02:06:20;101278.72;;;16.53;60.20
63652;BME280;49801;37.536;-122.304;2022-09-17T02:06:53;101286.72;;;16.54;60.20
63652;BME280;49801;37.536;-122.304;2022-09-17T02:07:21;101281.63;;;16.51;60.25
63652;BME280;49801;37.536;-122.304;2022-09-17T02:07:51;101280.38;;;16.47;60.46
63652;BME280;49801;37.536;-122.304;2022-09-17T02:08:20;101280.75;;;16.44;60.57
63652;BME280;49801;37.536;-122.304;2022-09-17T02:08:48;101277.38;;;16.42;60.74
63652;BME280;49801;37.536;-122.304;2022-09-17T02:09:17;101285.34;;;16.43;60.67
63652;BME280;49801;37.536;-122.304;2022-09-17T02:09:44;101282.63;;;16.43;60.73
63652;BME280;49801;37.536;-122.304;2022-09-17T02:10:16;101280.50;;;16.39;60.81
63652;BME280;49801;37.536;-122.304;2022-09-17T02:10:44;101282.59;;;16.37;60.80
63652;BME280;49801;37.536;-122.304;2022-09-17T02:11:11;101285.97;;;16.39;60.96
63652;BME280;49801;37.536;-122.304;2022-09-17T02:11:42;101279.84;;;16.37;60.91
63652;BME280;49801;37.536;-122.304;2022-09-17T02:12:12;101288.69;;;16.39;60.96
63652;BME280;49801;37.536;-122.304;2022-09-17T02:12:44;101288.31;;;16.42;60.99
63652;BME280;49801;37.536;-122.304;2022-09-17T02:14:07;101286.59;;;16.41;61.28
63652;BME280;49801;37.536;-122.304;2022-09-17T02:14:37;101279.44;;;16.40;61.71
63652;BME280;49801;37.536;-122.304;2022-09-17T02:15:06;101284.25;;;16.38;61.86
63652;BME280;49801;37.536;-122.304;2022-09-17T02:15:36;101286.09;;;16.30;61.68
63652;BME280;49801;37.536;-122.304;2022-09-17T02:16:06;101284.41;;;16.29;61.83
63652;BME280;49801;37.536;-122.304;2022-09-17T02:16:35;101278.94;;;16.29;61.76
63652;BME280;49801;37.536;-122.304;2022-09-17T02:17:05;101282.34;;;16.31;61.68
63652;BME280;49801;37.536;-122.304;2022-09-17T02:17:39;101284.41;;;16.29;61.66
63652;BME280;49801;37.536;-122.304;2022-09-17T02:18:39;101282.34;;;16.31;61.87
63652;BME280;49801;37.536;-122.304;2022-09-17T02:19:09;101286.75;;;16.33;61.55
63652;BME280;49801;37.536;-122.304;2022-09-17T02:19:38;101282.78;;;16.35;61.53
63652;BME280;49801;37.536;-122.304;2022-09-17T02:20:05;101280.69;;;16.37;61.81
63652;BME280;49801;37.536;-122.304;2022-09-17T02:20:37;101287.00;;;16.38;61.99
63652;BME280;49801;37.536;-122.304;2022-09-17T02:21:16;101288.06;;;16.37;62.13
63652;BME280;49801;37.536;-122.304;2022-09-17T02:22:56;101277.38;;;16.42;61.78
63652;BME280;49801;37.536;-122.304;2022-09-17T02:23:25;101284.50;;;16.43;61.53
63652;BME280;49801;37.536;-122.304;2022-09-17T02:23:57;101280.13;;;16.42;61.53
63652;BME280;49801;37.536;-122.304;2022-09-17T02:25:47;101282.16;;;16.40;61.86
63652;BME280;49801;37.536;-122.304;2022-09-17T02:26:13;101279.03;;;16.43;61.55
63652;BME280;49801;37.536;-122.304;2022-09-17T02:26:42;101270.84;;;16.43;61.65
63652;BME280;49801;37.536;-122.304;2022-09-17T02:27:56;101273.97;;;16.40;62.15
63652;BME280;49801;37.536;-122.304;2022-09-17T02:28:04;101271.66;;;16.37;62.46
63652;BME280;49801;37.536;-122.304;2022-09-17T02:29:08;101276.47;;;16.35;62.47
63652;BME280;49801;37.536;-122.304;2022-09-17T02:29:38;101271.81;;;16.28;62.92
63652;BME280;49801;37.536;-122.304;2022-09-17T02:30:06;101273.88;;;16.26;62.97
63652;BME280;49801;37.536;-122.304;2022-09-17T02:30:31;101282.09;;;16.26;63.00
63652;BME280;49801;37.536;-122.304;2022-09-17T02:30:57;101272.81;;;16.27;62.94
63652;BME280;49801;37.536;-122.304;2022-09-17T02:31:23;101269.06;;;16.28;63.01
63652;BME280;49801;37.536;-122.304;2022-09-17T02:31:49;101273.88;;;16.26;63.11
63652;BME280;49801;37.536;-122.304;2022-09-17T02:32:15;101273.88;;;16.26;63.14
63652;BME280;49801;37.536;-122.304;2022-09-17T02:32:41;101270.47;;;16.24;63.30
63652;BME280;49801;37.536;-122.304;2022-09-17T02:33:07;101277.00;;;16.23;63.54
63652;BME280;49801;37.536;-122.304;2022-09-17T02:33:35;101273.88;;;16.26;63.13
63652;BME280;49801;37.536;-122.304;2022-09-17T02:34:02;101289.16;;;16.21;63.66
63652;BME280;49801;37.536;-122.304;2022-09-17T02:34:30;101279.22;;;16.13;64.04
63652;BME280;49801;37.536;-122.304;2022-09-17T02:34:55;101277.91;;;16.09;64.01
63652;BME280;49801;37.536;-122.304;2022-09-17T02:35:21;101273.31;;;16.09;64.09
63652;BME280;49801;37.536;-122.304;2022-09-17T02:35:47;101281.13;;;16.12;63.78
63652;BME280;49801;37.536;-122.304;2022-09-17T02:36:13;101279.63;;;16.10;63.79
63652;BME280;49801;37.536;-122.304;2022-09-17T02:36:39;101278.97;;;16.08;63.97
63652;BME280;49801;37.536;-122.304;2022-09-17T02:37:05;101277.91;;;16.09;63.67
63652;BME280;49801;37.536;-122.304;2022-09-17T02:37:31;101275.84;;;16.11;63.69
63652;BME280;49801;37.536;-122.304;2022-09-17T02:37:57;101279.63;;;16.10;63.66
63652;BME280;49801;37.536;-122.304;2022-09-17T02:38:24;101275.00;;;16.10;63.81
63652;BME280;49801;37.536;-122.304;2022-09-17T02:38:56;101281.31;;;16.11;63.79
63652;BME280;49801;37.536;-122.304;2022-09-17T02:39:22;101274.16;;;16.10;63.90
63652;BME280;49801;37.536;-122.304;2022-09-17T02:39:48;101276.69;;;16.11;63.82
63652;BME280;49801;37.536;-122.304;2022-09-17T02:40:14;101211.97;;;15.69;64.20
63652;BME280;49801;37.536;-122.304;2022-09-17T02:40:45;101274.47;;;16.00;64.57
63652;BME280;49801;37.536;-122.304;2022-09-17T02:43:26;101274.03;;;15.97;64.64
63652;BME280;49801;37.536;-122.304;2022-09-17T02:45:22;101274.88;;;15.97;64.74
63652;BME280;49801;37.536;-122.304;2022-09-17T02:48:34;101275.84;;;15.89;64.93
63652;BME280;49801;37.536;-122.304;2022-09-17T02:51:10;101271.75;;;15.79;64.82
63652;BME280;49801;37.536;-122.304;2022-09-17T02:51:52;101220.94;;;15.41;64.70
63652;BME280;49801;37.536;-122.304;2022-09-17T02:54:00;101274.09;;;15.82;64.95
63652;BME280;49801;37.536;-122.304;2022-09-17T02:54:33;101274.94;;;15.82;64.92
63652;BME280;49801;37.536;-122.304;2022-09-17T02:55:28;101277.66;;;15.82;64.94
63652;BME280;49801;37.536;-122.304;2022-09-17T02:57:18;101270.91;;;15.78;65.43
63652;BME280;49801;37.536;-122.304;2022-09-17T02:57:46;101281.84;;;15.78;65.42
63652;BME280;49801;37.536;-122.304;2022-09-17T02:59:06;101276.91;;;15.73;65.65
63652;BME280;49801;37.536;-122.304;2022-09-17T02:59:36;101279.19;;;15.70;65.96
63652;BME280;49801;37.536;-122.304;2022-09-17T03:00:06;101276.19;;;15.65;66.12
63652;BME280;49801;37.536;-122.304;2022-09-17T03:00:33;101279.97;;;15.64;66.22
63652;BME280;49801;37.536;-122.304;2022-09-17T03:01:02;101277.41;;;15.62;66.12
63652;BME280;49801;37.536;-122.304;2022-09-17T03:01:33;101278.28;;;15.63;66.37
63652;BME280;49801;37.536;-122.304;2022-09-17T03:02:40;101285.78;;;15.61;66.37
63652;BME280;49801;37.536;-122.304;2022-09-17T03:03:08;101281.00;;;15.63;66.22
63652;BME280;49801;37.536;-122.304;2022-09-17T03:03:38;101278.94;;;15.65;66.14
63652;BME280;49801;37.536;-122.304;2022-09-17T03:04:06;101284.38;;;15.65;66.25
63652;BME280;49801;37.536;-122.304;2022-09-17T03:04:34;101282.03;;;15.62;66.46
63652;BME280;49801;37.536;-122.304;2022-09-17T03:05:01;101287.50;;;15.62;66.24
63652;BME280;49801;37.536;-122.304;2022-09-17T03:05:28;101289.97;;;15.56;66.79
63652;BME280;49801;37.536;-122.304;2022-09-17T03:05:54;101280.75;;;15.57;66.44
63652;BME280;49801;37.536;-122.304;2022-09-17T03:06:20;101283.47;;;15.57;66.30
63652;BME280;49801;37.536;-122.304;2022-09-17T03:06:47;101283.25;;;15.59;66.36
63652;BME280;49801;37.536;-122.304;2022-09-17T03:07:13;101279.88;;;15.57;66.42
63652;BME280;49801;37.536;-122.304;2022-09-17T03:07:39;101284.13;;;15.60;66.30
63652;BME280;49801;37.536;-122.304;2022-09-17T03:08:06;101285.78;;;15.61;66.27
63652;BME280;49801;37.536;-122.304;2022-09-17T03:08:36;101277.78;;;15.59;66.33
63652;BME280;49801;37.536;-122.304;2022-09-17T03:09:04;101295.88;;;15.60;66.21
63652;BME280;49801;37.536;-122.304;2022-09-17T03:09:30;101289.59;;;15.60;66.28
63652;BME280;49801;37.536;-122.304;2022-09-17T03:09:55;101288.94;;;15.57;66.32
63652;BME280;49801;37.536;-122.304;2022-09-17T03:10:21;101282.41;;;15.59;66.27